x

Bay Of Campeche - 214 Nm Ne Of Veracruz, Mx (42055) Wave Buoy

7:50pm - Fri 22nd Aug 2014 All times are UTC.

  • Sig Wave height 2.6ft
  • Swell Direction
  • Peak Period 5s
  • Average Period 4s
  • Wind
    11mph, 13mph gusts
  • Sea Temp 87°f
  • Air Temp 86°f
  • Sea Pressure 1015.4mb

More Historic Weather Station data

Upgrade to MSW Pro to gain access to the past 30 days of data for over 8000 Wavebouys and Weather Stations around the globe.

Join Pro

Comparision Forecast

View Surf forecast
   
Fri 08/22 7:50pm 2.5ft 5s 4s 11 13 mph 1015.4mb 87f 86f
6:50pm 2.5ft 5s 4s 11
mph
1015.7mb 87f 86f
5:50pm 3ft 5s 4s 11 13 mph 1016.1mb 87f 86f
4:50pm 3ft 5s 4s 13 16 mph 1016.3mb 87f 86f
3:50pm 3ft 5s 4s 13 16 mph 1016.3mb 87f 86f
2:50pm 3ft 5s 4s 13 18 mph 1015.8mb 87f 86f
1:50pm 3ft 5s 4s 13 16 mph 1015.5mb 86f 86f
12:50pm 3.5ft 5s 4s 16 18 mph 1015.5mb 86f 86f
11:50am 3.5ft 5s 4s 16 20 mph 1015.2mb 86f 86f
10:50am 3ft 5s 4s 16 20 mph 1015.1mb 86f 86f
9:50am 3.5ft 5s 4s 18 20 mph 1014.6mb 86f 86f
8:50am 3.5ft 6s 4s 18 20 mph 1015mb 86f 85f
7:50am 3.5ft 6s 4s 16 20 mph 1015.8mb 86f 86f
6:50am 3.5ft 6s 4s 16 18 mph 1016.6mb 86f 86f
5:50am 3.5ft 6s 4s 16 18 mph 1017.2mb 86f 86f
4:50am 3.5ft 6s 4s 18 20 mph 1017.6mb 86f 86f
3:50am 3.5ft 6s 5s 18 20 mph 1017.9mb 87f 86f
2:50am 3.5ft 6s 4s 16 18 mph 1017.6mb 87f 86f
1:50am 3.5ft 5s 4s 13 16 mph 1016.8mb 87f 86f
12:50am 3.5ft 6s 5s 13 16 mph 1016.3mb 87f 86f
Thu 08/21 11:50pm 3.5ft 6s 5s 11 13 mph 1016mb 87f 85f
10:50pm 4ft 7s 5s 11 16 mph 1015.9mb 87f 85f
9:50pm 4.5ft 6s 5s 11 13 mph 1015.8mb 87f 85f
8:50pm 4.5ft 6s 5s 13 16 mph 1016.4mb 87f 85f
7:50pm 5ft 6s 5s 13 16 mph 1016.9mb 87f 86f
6:50pm 5ft 7s 5s 13 18 mph 1017.2mb 87f 86f
5:50pm 5ft 7s 5s 16 18 mph 1017.3mb 87f 85f
4:50pm 5.5ft 7s 5s 16 20 mph 1017.4mb 87f 86f
3:50pm 5.5ft 7s 5s 18 20 mph 1017.4mb 87f 86f
2:50pm 5ft 6s 5s 18 22 mph 1016.7mb 87f 86f
1:50pm 6ft 6s 5s 20 22 mph 1016.3mb 87f 86f
12:50pm 6ft 6s 5s 20 25 mph 1015.9mb 87f 86f
11:50am 6ft 6s 5s 22 25 mph 1015.4mb 87f 86f
10:50am 5.5ft 6s 5s 22 27 mph 1014.5mb 87f 86f
9:50am 5.5ft 6s 5s 22 27 mph 1014.2mb 87f 86f
8:50am 6ft 7s 5s 22 27 mph 1014.3mb 87f 86f
7:50am 5ft 7s 5s 22 29 mph 1014.5mb 87f 86f
6:50am 5ft 7s 5s 20 25 mph 1015.3mb 87f 86f
5:50am 5ft 6s 5s 20 22 mph 1015.7mb 87f 86f
4:50am 5ft 6s 5s 22 27 mph 1015.7mb 87f 86f
3:50am 4.5ft 7s 5s 20 22 mph 1015.8mb 87f 86f
2:50am 4.5ft 6s 5s 20 22 mph 1015.5mb 87f 86f
1:50am 4.5ft 6s 5s 18 20 mph 1014.9mb 87f 85f
12:50am 4ft 6s 5s 16 20 mph 1014mb 87f 86f
Wed 08/20 11:50pm 4ft 6s 5s 16 20 mph 1014.1mb 87f 86f
10:50pm 4ft 6s 4s 18 20 mph 1014mb 87f 86f
9:50pm 4ft 6s 4s 18 20 mph 1014.3mb 87f 86f
8:50pm 4.5ft 5s 5s 16 18 mph 1014.5mb 87f 86f
7:50pm 4ft 5s 5s 18 20 mph 1014.9mb 87f 86f
6:50pm 4ft 6s 5s 18 22 mph 1015.2mb 87f 86f
5:50pm 4.5ft 5s 4s 18 20 mph 1015.4mb 87f 86f
4:50pm 4ft 6s 5s 18 20 mph 1015.3mb 87f 87f
3:50pm 3.5ft 5s 4s 13 18 mph 1015mb 87f 87f
2:50pm 4ft 6s 4s 20 25 mph 1014.7mb 87f 87f
1:50pm 3.5ft 5s 4s 20 25 mph 1013.7mb 87f 87f
12:50pm 3.5ft 6s 4s 18 22 mph 1013.4mb 87f 86f
11:50am 3.5ft 6s 4s 18 20 mph 1012.9mb 87f 86f
10:50am 3ft 5s 4s 18 22 mph 1012.5mb 87f 86f
9:50am 3.5ft 6s 4s 18 20 mph 1012.3mb 87f 86f
8:50am 3ft 6s 4s 16 20 mph 1012.2mb 87f 86f
7:50am 3ft 6s 4s 16 18 mph 1012.6mb 87f 86f
6:50am 3ft 5s 4s 16 18 mph 1013mb 87f 85f
5:50am 3.5ft 6s 5s 13 16 mph 1013.3mb 87f 85f
4:50am 3.5ft 6s 5s 11 13 mph 1013.3mb 87f 85f
3:50am 3.5ft 6s 5s 11 13 mph 1012.9mb 87f 86f
2:50am 3.5ft 5s 4s 16
mph
1012.4mb 87f 86f
1:50am 3.5ft 6s 4s 18 22 mph 1011.8mb 87f 86f
12:50am 3ft 6s 4s 16 20 mph 1011.1mb 87f 86f
Tue 08/19 11:50pm 3ft 5s 4s 16 18 mph 1010.8mb 87f 86f
10:50pm 3ft 5s 4s 13 16 mph 1010.7mb 87f 86f
9:50pm 2.5ft 5s 4s 13 18 mph 1011mb 87f 86f
8:50pm 2.5ft 5s 4s 13 16 mph 1011.6mb 87f 86f
7:50pm 2.5ft 5s 4s 13 16 mph 1012.7mb 87f 86f
6:50pm 2.5ft 5s 4s 13 16 mph 1013.2mb 87f 86f
5:50pm 2.5ft 5s 4s 13 16 mph 1013.8mb 87f 86f
4:50pm 2.5ft 5s 4s 16 18 mph 1014mb 87f 85f
3:50pm 2.5ft 5s 4s 16 18 mph 1014mb 87f 86f
2:50pm 2.5ft 5s 4s 13 16 mph 1013.7mb 87f 86f
1:50pm 2.5ft 5s 4s 13 16 mph 1013.3mb 87f 86f
12:50pm 2.5ft 5s 4s 13 16 mph 1012.9mb 87f 85f
11:50am 2.5ft 5s 4s 11 13 mph 1012.7mb 87f 86f
10:50am 2.5ft 5s 4s 16 18 mph 1012.2mb 87f 85f
9:50am 2.5ft 5s 4s 16 18 mph 1012.1mb 87f 85f
8:50am 2.5ft 5s 4s 16 18 mph 1012.4mb 87f 86f
7:50am 2.5ft 6s 4s 13 16 mph 1012.7mb 87f 85f
6:50am 2.5ft 6s 4s 11 16 mph 1013.1mb 87f 85f
5:50am 2.5ft 6s 4s 11 13 mph 1013.5mb 87f 85f
4:50am 3ft 6s 4s 16 20 mph 1013.9mb 87f 86f
3:50am 2.5ft 6s 4s 16 18 mph 1014mb 87f 85f
2:50am 3ft 6s 5s 13 16 mph 1013.8mb 87f 85f
1:50am 3ft 6s 5s 13 16 mph 1012.9mb 87f 85f
12:50am 3.5ft 6s 5s 11 13 mph 1012.4mb 87f 85f
Mon 08/18 11:50pm 3.5ft 6s 5s 11 13 mph 1012.1mb 87f 86f
10:50pm 3.5ft 7s 5s 9
mph
1012.3mb 87f 86f
9:50pm 4ft 6s 5s 7 9 mph 1013.1mb 87f 86f